sensor_id;sensor_type;location;lat;lon;timestamp;P1;durP1;ratioP1;P2;durP2;ratioP2
1224;SDS011;602;48.000;7.840;2024-03-08T00:02:22;11.97;;;6.43;;
1224;SDS011;602;48.000;7.840;2024-03-08T00:04:51;13.60;;;6.27;;
1224;SDS011;602;48.000;7.840;2024-03-08T00:07:18;14.20;;;7.73;;
1224;SDS011;602;48.000;7.840;2024-03-08T00:09:44;7.23;;;5.10;;
1224;SDS011;602;48.000;7.840;2024-03-08T00:12:11;10.63;;;6.50;;
1224;SDS011;602;48.000;7.840;2024-03-08T00:14:38;10.10;;;5.03;;
1224;SDS011;602;48.000;7.840;2024-03-08T00:17:05;10.80;;;7.13;;
1224;SDS011;602;48.000;7.840;2024-03-08T00:19:32;9.07;;;5.73;;
1224;SDS011;602;48.000;7.840;2024-03-08T00:22:00;8.13;;;4.40;;
1224;SDS011;602;48.000;7.840;2024-03-08T00:24:27;8.57;;;5.00;;
1224;SDS011;602;48.000;7.840;2024-03-08T00:26:54;9.33;;;6.40;;
1224;SDS011;602;48.000;7.840;2024-03-08T00:29:20;8.23;;;4.30;;
1224;SDS011;602;48.000;7.840;2024-03-08T00:31:47;15.97;;;6.50;;
1224;SDS011;602;48.000;7.840;2024-03-08T00:34:15;9.00;;;7.30;;
1224;SDS011;602;48.000;7.840;2024-03-08T00:36:41;7.37;;;5.00;;
1224;SDS011;602;48.000;7.840;2024-03-08T00:39:10;13.93;;;6.13;;
1224;SDS011;602;48.000;7.840;2024-03-08T00:41:38;10.83;;;6.07;;
1224;SDS011;602;48.000;7.840;2024-03-08T00:44:05;12.60;;;4.10;;
1224;SDS011;602;48.000;7.840;2024-03-08T00:46:32;11.13;;;3.87;;
1224;SDS011;602;48.000;7.840;2024-03-08T00:48:59;10.23;;;6.33;;
1224;SDS011;602;48.000;7.840;2024-03-08T00:51:26;8.17;;;5.63;;
1224;SDS011;602;48.000;7.840;2024-03-08T00:53:53;9.50;;;5.70;;
1224;SDS011;602;48.000;7.840;2024-03-08T00:56:21;12.23;;;6.87;;
1224;SDS011;602;48.000;7.840;2024-03-08T00:58:48;7.13;;;4.33;;
1224;SDS011;602;48.000;7.840;2024-03-08T01:01:16;8.30;;;5.50;;
1224;SDS011;602;48.000;7.840;2024-03-08T01:03:44;8.67;;;4.97;;
1224;SDS011;602;48.000;7.840;2024-03-08T01:06:11;8.53;;;5.47;;
1224;SDS011;602;48.000;7.840;2024-03-08T01:08:38;11.50;;;5.90;;
1224;SDS011;602;48.000;7.840;2024-03-08T01:11:07;13.40;;;7.10;;
1224;SDS011;602;48.000;7.840;2024-03-08T01:13:35;11.30;;;6.07;;
1224;SDS011;602;48.000;7.840;2024-03-08T01:16:02;10.07;;;5.40;;
1224;SDS011;602;48.000;7.840;2024-03-08T01:18:29;8.70;;;5.57;;
1224;SDS011;602;48.000;7.840;2024-03-08T01:20:57;9.40;;;5.27;;
1224;SDS011;602;48.000;7.840;2024-03-08T01:23:23;7.80;;;5.07;;
1224;SDS011;602;48.000;7.840;2024-03-08T01:25:50;6.83;;;4.30;;
1224;SDS011;602;48.000;7.840;2024-03-08T01:28:21;7.00;;;4.37;;
1224;SDS011;602;48.000;7.840;2024-03-08T01:30:50;7.90;;;5.30;;
1224;SDS011;602;48.000;7.840;2024-03-08T01:33:20;9.80;;;5.90;;
1224;SDS011;602;48.000;7.840;2024-03-08T01:35:48;5.90;;;4.00;;
1224;SDS011;602;48.000;7.840;2024-03-08T01:38:15;7.53;;;4.57;;
1224;SDS011;602;48.000;7.840;2024-03-08T01:40:42;5.43;;;4.10;;
1224;SDS011;602;48.000;7.840;2024-03-08T01:43:16;8.30;;;5.90;;
1224;SDS011;602;48.000;7.840;2024-03-08T01:45:44;7.63;;;5.27;;
1224;SDS011;602;48.000;7.840;2024-03-08T01:48:13;9.07;;;5.50;;
1224;SDS011;602;48.000;7.840;2024-03-08T01:50:40;12.40;;;5.77;;
1224;SDS011;602;48.000;7.840;2024-03-08T01:53:07;9.23;;;4.93;;
1224;SDS011;602;48.000;7.840;2024-03-08T01:55:36;11.37;;;5.33;;
1224;SDS011;602;48.000;7.840;2024-03-08T01:58:04;12.10;;;5.20;;
1224;SDS011;602;48.000;7.840;2024-03-08T02:00:32;9.63;;;4.70;;
1224;SDS011;602;48.000;7.840;2024-03-08T02:03:00;11.00;;;5.53;;
1224;SDS011;602;48.000;7.840;2024-03-08T02:05:30;7.83;;;5.73;;
1224;SDS011;602;48.000;7.840;2024-03-08T02:07:57;7.90;;;4.70;;
1224;SDS011;602;48.000;7.840;2024-03-08T02:10:24;7.70;;;4.40;;
1224;SDS011;602;48.000;7.840;2024-03-08T02:12:51;8.87;;;6.40;;
1224;SDS011;602;48.000;7.840;2024-03-08T02:15:18;9.87;;;6.20;;
1224;SDS011;602;48.000;7.840;2024-03-08T02:17:46;6.00;;;4.07;;
1224;SDS011;602;48.000;7.840;2024-03-08T02:20:14;7.03;;;4.63;;
1224;SDS011;602;48.000;7.840;2024-03-08T02:22:42;12.70;;;6.60;;
1224;SDS011;602;48.000;7.840;2024-03-08T02:25:09;8.03;;;5.30;;
1224;SDS011;602;48.000;7.840;2024-03-08T02:27:37;7.60;;;5.33;;
1224;SDS011;602;48.000;7.840;2024-03-08T02:30:04;14.20;;;6.63;;
1224;SDS011;602;48.000;7.840;2024-03-08T02:32:32;8.40;;;5.30;;
1224;SDS011;602;48.000;7.840;2024-03-08T02:34:59;7.73;;;5.63;;
1224;SDS011;602;48.000;7.840;2024-03-08T02:37:26;11.73;;;5.87;;
1224;SDS011;602;48.000;7.840;2024-03-08T02:39:54;6.77;;;5.07;;
1224;SDS011;602;48.000;7.840;2024-03-08T02:42:21;13.53;;;5.63;;
1224;SDS011;602;48.000;7.840;2024-03-08T02:44:49;7.27;;;4.20;;
1224;SDS011;602;48.000;7.840;2024-03-08T02:47:16;10.37;;;5.07;;
1224;SDS011;602;48.000;7.840;2024-03-08T02:49:42;7.50;;;4.70;;
1224;SDS011;602;48.000;7.840;2024-03-08T02:52:09;9.23;;;5.43;;
1224;SDS011;602;48.000;7.840;2024-03-08T02:54:36;8.97;;;4.80;;
1224;SDS011;602;48.000;7.840;2024-03-08T02:57:04;13.20;;;7.07;;
1224;SDS011;602;48.000;7.840;2024-03-08T02:59:32;10.60;;;5.60;;
1224;SDS011;602;48.000;7.840;2024-03-08T03:02:00;10.47;;;5.87;;
1224;SDS011;602;48.000;7.840;2024-03-08T03:04:27;7.70;;;4.80;;
1224;SDS011;602;48.000;7.840;2024-03-08T03:06:53;6.93;;;4.43;;
1224;SDS011;602;48.000;7.840;2024-03-08T03:09:20;10.60;;;4.30;;
1224;SDS011;602;48.000;7.840;2024-03-08T03:11:52;7.40;;;4.70;;
1224;SDS011;602;48.000;7.840;2024-03-08T03:14:20;9.80;;;5.70;;
1224;SDS011;602;48.000;7.840;2024-03-08T03:16:47;7.13;;;4.57;;
1224;SDS011;602;48.000;7.840;2024-03-08T03:19:15;6.03;;;4.20;;
1224;SDS011;602;48.000;7.840;2024-03-08T03:21:42;9.77;;;5.53;;
1224;SDS011;602;48.000;7.840;2024-03-08T03:24:09;7.30;;;5.10;;
1224;SDS011;602;48.000;7.840;2024-03-08T03:26:37;9.30;;;6.13;;
1224;SDS011;602;48.000;7.840;2024-03-08T03:29:05;12.33;;;5.63;;
1224;SDS011;602;48.000;7.840;2024-03-08T03:31:35;9.20;;;4.20;;
1224;SDS011;602;48.000;7.840;2024-03-08T03:34:02;6.80;;;4.37;;
1224;SDS011;602;48.000;7.840;2024-03-08T03:36:29;10.43;;;6.37;;
1224;SDS011;602;48.000;7.840;2024-03-08T03:38:56;9.57;;;5.63;;
1224;SDS011;602;48.000;7.840;2024-03-08T03:41:32;8.17;;;5.20;;
1224;SDS011;602;48.000;7.840;2024-03-08T03:43:59;9.03;;;5.00;;
1224;SDS011;602;48.000;7.840;2024-03-08T03:46:26;9.67;;;4.83;;
1224;SDS011;602;48.000;7.840;2024-03-08T03:48:54;9.17;;;4.93;;
1224;SDS011;602;48.000;7.840;2024-03-08T03:51:21;11.80;;;5.40;;
1224;SDS011;602;48.000;7.840;2024-03-08T03:53:48;7.90;;;4.87;;
1224;SDS011;602;48.000;7.840;2024-03-08T03:56:15;11.30;;;5.30;;
1224;SDS011;602;48.000;7.840;2024-03-08T03:58:42;8.43;;;6.30;;
1224;SDS011;602;48.000;7.840;2024-03-08T04:01:08;8.77;;;4.70;;
1224;SDS011;602;48.000;7.840;2024-03-08T04:03:35;9.60;;;5.80;;
1224;SDS011;602;48.000;7.840;2024-03-08T04:06:04;10.40;;;5.43;;
1224;SDS011;602;48.000;7.840;2024-03-08T04:08:31;6.87;;;5.27;;
1224;SDS011;602;48.000;7.840;2024-03-08T04:10:59;6.80;;;4.90;;
1224;SDS011;602;48.000;7.840;2024-03-08T04:13:26;8.13;;;5.30;;
1224;SDS011;602;48.000;7.840;2024-03-08T04:15:53;8.67;;;5.43;;
1224;SDS011;602;48.000;7.840;2024-03-08T04:18:20;10.23;;;4.77;;
1224;SDS011;602;48.000;7.840;2024-03-08T04:20:47;11.97;;;6.27;;
1224;SDS011;602;48.000;7.840;2024-03-08T04:23:15;6.57;;;4.50;;
1224;SDS011;602;48.000;7.840;2024-03-08T04:25:43;8.37;;;5.30;;
1224;SDS011;602;48.000;7.840;2024-03-08T04:28:09;9.60;;;6.60;;
1224;SDS011;602;48.000;7.840;2024-03-08T04:30:37;14.57;;;4.20;;
1224;SDS011;602;48.000;7.840;2024-03-08T04:33:04;7.40;;;4.30;;
1224;SDS011;602;48.000;7.840;2024-03-08T04:35:32;9.63;;;5.67;;
1224;SDS011;602;48.000;7.840;2024-03-08T04:37:59;7.50;;;4.60;;
1224;SDS011;602;48.000;7.840;2024-03-08T04:40:27;5.67;;;4.43;;
1224;SDS011;602;48.000;7.840;2024-03-08T04:42:54;10.13;;;6.50;;
1224;SDS011;602;48.000;7.840;2024-03-08T04:45:21;8.83;;;4.27;;
1224;SDS011;602;48.000;7.840;2024-03-08T04:47:48;7.60;;;3.83;;
1224;SDS011;602;48.000;7.840;2024-03-08T04:50:15;9.00;;;4.23;;
1224;SDS011;602;48.000;7.840;2024-03-08T04:52:42;8.07;;;4.90;;
1224;SDS011;602;48.000;7.840;2024-03-08T04:55:09;7.50;;;5.00;;
1224;SDS011;602;48.000;7.840;2024-03-08T04:57:37;12.10;;;5.33;;
1224;SDS011;602;48.000;7.840;2024-03-08T05:00:04;16.27;;;5.67;;
1224;SDS011;602;48.000;7.840;2024-03-08T05:02:36;5.60;;;3.93;;
1224;SDS011;602;48.000;7.840;2024-03-08T05:05:04;8.20;;;5.70;;
1224;SDS011;602;48.000;7.840;2024-03-08T05:07:32;7.03;;;4.17;;
1224;SDS011;602;48.000;7.840;2024-03-08T05:09:59;6.30;;;4.47;;
1224;SDS011;602;48.000;7.840;2024-03-08T05:12:27;5.97;;;4.07;;
1224;SDS011;602;48.000;7.840;2024-03-08T05:14:55;8.87;;;5.03;;
1224;SDS011;602;48.000;7.840;2024-03-08T05:17:22;9.13;;;5.23;;
1224;SDS011;602;48.000;7.840;2024-03-08T05:19:49;7.73;;;3.70;;
1224;SDS011;602;48.000;7.840;2024-03-08T05:22:16;11.23;;;4.67;;
1224;SDS011;602;48.000;7.840;2024-03-08T05:24:44;7.97;;;5.00;;
1224;SDS011;602;48.000;7.840;2024-03-08T05:27:11;7.10;;;4.80;;
1224;SDS011;602;48.000;7.840;2024-03-08T05:29:38;6.07;;;4.13;;
1224;SDS011;602;48.000;7.840;2024-03-08T05:32:06;8.57;;;4.67;;
1224;SDS011;602;48.000;7.840;2024-03-08T05:34:33;7.37;;;4.47;;
1224;SDS011;602;48.000;7.840;2024-03-08T05:37:00;9.10;;;5.80;;
1224;SDS011;602;48.000;7.840;2024-03-08T05:39:27;6.47;;;4.80;;
1224;SDS011;602;48.000;7.840;2024-03-08T05:41:54;8.33;;;5.20;;
1224;SDS011;602;48.000;7.840;2024-03-08T05:44:21;9.20;;;5.03;;
1224;SDS011;602;48.000;7.840;2024-03-08T05:46:48;8.83;;;4.50;;
1224;SDS011;602;48.000;7.840;2024-03-08T05:49:17;4.90;;;3.90;;
1224;SDS011;602;48.000;7.840;2024-03-08T05:51:43;9.23;;;5.43;;
1224;SDS011;602;48.000;7.840;2024-03-08T05:54:12;11.70;;;5.17;;
1224;SDS011;602;48.000;7.840;2024-03-08T05:56:39;8.40;;;6.10;;
1224;SDS011;602;48.000;7.840;2024-03-08T05:59:07;8.17;;;5.80;;
1224;SDS011;602;48.000;7.840;2024-03-08T06:01:34;7.43;;;5.23;;
1224;SDS011;602;48.000;7.840;2024-03-08T06:04:03;12.40;;;5.20;;
1224;SDS011;602;48.000;7.840;2024-03-08T06:06:31;7.03;;;3.83;;
1224;SDS011;602;48.000;7.840;2024-03-08T06:08:58;8.73;;;5.17;;
1224;SDS011;602;48.000;7.840;2024-03-08T06:11:25;7.53;;;4.23;;
1224;SDS011;602;48.000;7.840;2024-03-08T06:13:53;8.90;;;5.23;;
1224;SDS011;602;48.000;7.840;2024-03-08T06:16:25;12.33;;;4.60;;
1224;SDS011;602;48.000;7.840;2024-03-08T06:18:54;10.07;;;4.83;;
1224;SDS011;602;48.000;7.840;2024-03-08T06:21:22;7.60;;;4.77;;
1224;SDS011;602;48.000;7.840;2024-03-08T06:23:52;5.47;;;4.97;;
1224;SDS011;602;48.000;7.840;2024-03-08T06:26:20;10.67;;;6.10;;
1224;SDS011;602;48.000;7.840;2024-03-08T06:28:47;12.50;;;5.87;;
1224;SDS011;602;48.000;7.840;2024-03-08T06:31:15;8.93;;;5.40;;
1224;SDS011;602;48.000;7.840;2024-03-08T06:33:42;8.33;;;4.97;;
1224;SDS011;602;48.000;7.840;2024-03-08T06:36:10;10.60;;;6.40;;
1224;SDS011;602;48.000;7.840;2024-03-08T06:38:38;6.83;;;5.80;;
1224;SDS011;602;48.000;7.840;2024-03-08T06:41:08;7.30;;;4.47;;
1224;SDS011;602;48.000;7.840;2024-03-08T06:43:40;14.93;;;8.80;;
1224;SDS011;602;48.000;7.840;2024-03-08T06:46:07;15.30;;;5.50;;
1224;SDS011;602;48.000;7.840;2024-03-08T06:48:34;12.50;;;6.27;;
1224;SDS011;602;48.000;7.840;2024-03-08T06:51:02;9.57;;;7.77;;
1224;SDS011;602;48.000;7.840;2024-03-08T06:53:30;10.30;;;5.97;;
1224;SDS011;602;48.000;7.840;2024-03-08T06:55:57;13.97;;;5.40;;
1224;SDS011;602;48.000;7.840;2024-03-08T06:58:25;11.07;;;7.90;;
1224;SDS011;602;48.000;7.840;2024-03-08T07:00:52;14.83;;;9.50;;
1224;SDS011;602;48.000;7.840;2024-03-08T07:03:23;16.50;;;8.10;;
1224;SDS011;602;48.000;7.840;2024-03-08T07:05:51;6.57;;;4.13;;
1224;SDS011;602;48.000;7.840;2024-03-08T07:08:18;5.20;;;4.53;;
1224;SDS011;602;48.000;7.840;2024-03-08T07:10:47;9.13;;;4.10;;
1224;SDS011;602;48.000;7.840;2024-03-08T07:13:14;15.90;;;9.80;;
1224;SDS011;602;48.000;7.840;2024-03-08T07:15:43;31.60;;;17.23;;
1224;SDS011;602;48.000;7.840;2024-03-08T07:18:11;29.07;;;16.43;;
1224;SDS011;602;48.000;7.840;2024-03-08T07:20:39;16.70;;;10.77;;
1224;SDS011;602;48.000;7.840;2024-03-08T07:23:07;21.13;;;12.30;;
1224;SDS011;602;48.000;7.840;2024-03-08T07:25:35;20.53;;;10.37;;
1224;SDS011;602;48.000;7.840;2024-03-08T07:28:04;14.87;;;10.40;;
1224;SDS011;602;48.000;7.840;2024-03-08T07:30:32;19.23;;;11.43;;
1224;SDS011;602;48.000;7.840;2024-03-08T07:33:18;14.53;;;10.20;;
1224;SDS011;602;48.000;7.840;2024-03-08T07:35:45;18.40;;;9.70;;
1224;SDS011;602;48.000;7.840;2024-03-08T07:38:12;11.37;;;7.30;;
1224;SDS011;602;48.000;7.840;2024-03-08T07:40:40;11.73;;;8.40;;
1224;SDS011;602;48.000;7.840;2024-03-08T07:43:09;16.80;;;7.30;;
1224;SDS011;602;48.000;7.840;2024-03-08T07:45:36;8.37;;;6.50;;
1224;SDS011;602;48.000;7.840;2024-03-08T07:48:04;14.20;;;9.07;;
1224;SDS011;602;48.000;7.840;2024-03-08T07:50:36;13.57;;;7.00;;
1224;SDS011;602;48.000;7.840;2024-03-08T07:53:04;10.27;;;6.30;;
1224;SDS011;602;48.000;7.840;2024-03-08T07:55:31;9.50;;;6.30;;
1224;SDS011;602;48.000;7.840;2024-03-08T07:57:58;10.17;;;6.57;;
1224;SDS011;602;48.000;7.840;2024-03-08T08:00:25;12.87;;;7.07;;
1224;SDS011;602;48.000;7.840;2024-03-08T08:02:53;12.30;;;6.93;;
1224;SDS011;602;48.000;7.840;2024-03-08T08:05:20;11.43;;;6.47;;
1224;SDS011;602;48.000;7.840;2024-03-08T08:07:48;15.23;;;8.13;;
1224;SDS011;602;48.000;7.840;2024-03-08T08:10:17;12.07;;;7.60;;
1224;SDS011;602;48.000;7.840;2024-03-08T08:12:46;15.10;;;7.57;;
1224;SDS011;602;48.000;7.840;2024-03-08T08:15:13;11.30;;;6.80;;
1224;SDS011;602;48.000;7.840;2024-03-08T08:17:41;10.47;;;6.93;;
1224;SDS011;602;48.000;7.840;2024-03-08T08:20:08;15.13;;;6.57;;
1224;SDS011;602;48.000;7.840;2024-03-08T08:22:36;8.97;;;5.97;;
1224;SDS011;602;48.000;7.840;2024-03-08T08:25:06;15.47;;;7.50;;
1224;SDS011;602;48.000;7.840;2024-03-08T08:27:33;11.43;;;7.17;;
1224;SDS011;602;48.000;7.840;2024-03-08T08:30:01;10.67;;;6.37;;
1224;SDS011;602;48.000;7.840;2024-03-08T08:32:33;15.30;;;8.57;;
1224;SDS011;602;48.000;7.840;2024-03-08T08:35:00;8.87;;;6.60;;
1224;SDS011;602;48.000;7.840;2024-03-08T08:37:27;9.57;;;6.63;;
1224;SDS011;602;48.000;7.840;2024-03-08T08:39:55;8.97;;;6.53;;
1224;SDS011;602;48.000;7.840;2024-03-08T08:42:24;14.07;;;6.77;;
1224;SDS011;602;48.000;7.840;2024-03-08T08:44:51;12.93;;;7.40;;
1224;SDS011;602;48.000;7.840;2024-03-08T08:47:17;13.20;;;6.67;;
1224;SDS011;602;48.000;7.840;2024-03-08T08:49:44;18.07;;;7.87;;
1224;SDS011;602;48.000;7.840;2024-03-08T08:52:12;13.30;;;7.30;;
1224;SDS011;602;48.000;7.840;2024-03-08T08:54:40;16.33;;;8.10;;
1224;SDS011;602;48.000;7.840;2024-03-08T08:57:07;11.13;;;6.37;;
1224;SDS011;602;48.000;7.840;2024-03-08T08:59:36;10.53;;;6.57;;
1224;SDS011;602;48.000;7.840;2024-03-08T09:02:04;10.57;;;7.00;;
1224;SDS011;602;48.000;7.840;2024-03-08T09:04:31;9.90;;;6.67;;
1224;SDS011;602;48.000;7.840;2024-03-08T09:07:01;10.77;;;6.40;;
1224;SDS011;602;48.000;7.840;2024-03-08T09:09:31;10.63;;;7.30;;
1224;SDS011;602;48.000;7.840;2024-03-08T09:11:58;11.07;;;7.17;;
1224;SDS011;602;48.000;7.840;2024-03-08T09:14:25;7.03;;;5.80;;
1224;SDS011;602;48.000;7.840;2024-03-08T09:16:53;9.07;;;6.07;;
1224;SDS011;602;48.000;7.840;2024-03-08T09:19:20;10.80;;;6.90;;
1224;SDS011;602;48.000;7.840;2024-03-08T09:21:48;11.53;;;6.70;;
1224;SDS011;602;48.000;7.840;2024-03-08T09:24:16;12.77;;;6.60;;
1224;SDS011;602;48.000;7.840;2024-03-08T09:26:43;6.80;;;5.70;;
1224;SDS011;602;48.000;7.840;2024-03-08T09:29:10;8.30;;;6.10;;
1224;SDS011;602;48.000;7.840;2024-03-08T09:31:37;9.40;;;6.70;;
1224;SDS011;602;48.000;7.840;2024-03-08T09:34:06;9.07;;;6.77;;
1224;SDS011;602;48.000;7.840;2024-03-08T09:36:33;13.43;;;8.30;;
1224;SDS011;602;48.000;7.840;2024-03-08T09:39:00;8.53;;;6.30;;
1224;SDS011;602;48.000;7.840;2024-03-08T09:41:27;7.70;;;5.83;;
1224;SDS011;602;48.000;7.840;2024-03-08T09:43:56;8.40;;;6.30;;
1224;SDS011;602;48.000;7.840;2024-03-08T09:46:24;8.07;;;5.77;;
1224;SDS011;602;48.000;7.840;2024-03-08T09:48:52;11.87;;;6.50;;
1224;SDS011;602;48.000;7.840;2024-03-08T09:51:20;11.73;;;7.47;;
1224;SDS011;602;48.000;7.840;2024-03-08T09:53:53;10.97;;;6.73;;
1224;SDS011;602;48.000;7.840;2024-03-08T09:56:20;13.17;;;5.90;;
1224;SDS011;602;48.000;7.840;2024-03-08T09:58:48;8.63;;;6.20;;
1224;SDS011;602;48.000;7.840;2024-03-08T10:01:39;8.33;;;5.90;;
1224;SDS011;602;48.000;7.840;2024-03-08T10:04:06;10.00;;;5.80;;
1224;SDS011;602;48.000;7.840;2024-03-08T10:06:36;8.77;;;6.23;;
1224;SDS011;602;48.000;7.840;2024-03-08T10:09:03;8.03;;;5.80;;
1224;SDS011;602;48.000;7.840;2024-03-08T10:11:32;10.20;;;7.10;;
1224;SDS011;602;48.000;7.840;2024-03-08T10:14:00;6.93;;;5.53;;
1224;SDS011;602;48.000;7.840;2024-03-08T10:16:27;10.93;;;7.30;;
1224;SDS011;602;48.000;7.840;2024-03-08T10:18:55;8.90;;;6.30;;
1224;SDS011;602;48.000;7.840;2024-03-08T10:21:23;7.10;;;5.43;;
1224;SDS011;602;48.000;7.840;2024-03-08T10:23:51;8.73;;;6.43;;
1224;SDS011;602;48.000;7.840;2024-03-08T10:26:19;8.37;;;5.90;;
1224;SDS011;602;48.000;7.840;2024-03-08T10:28:47;13.93;;;7.80;;
1224;SDS011;602;48.000;7.840;2024-03-08T10:31:14;9.43;;;6.37;;
1224;SDS011;602;48.000;7.840;2024-03-08T10:33:42;8.13;;;6.20;;
1224;SDS011;602;48.000;7.840;2024-03-08T10:36:09;10.37;;;6.77;;
1224;SDS011;602;48.000;7.840;2024-03-08T10:38:37;7.70;;;5.83;;
1224;SDS011;602;48.000;7.840;2024-03-08T10:41:07;9.67;;;5.73;;
1224;SDS011;602;48.000;7.840;2024-03-08T10:43:40;12.33;;;6.93;;
1224;SDS011;602;48.000;7.840;2024-03-08T10:46:21;9.33;;;5.43;;
1224;SDS011;602;48.000;7.840;2024-03-08T10:49:02;9.97;;;6.60;;
1224;SDS011;602;48.000;7.840;2024-03-08T10:51:32;9.70;;;6.80;;
1224;SDS011;602;48.000;7.840;2024-03-08T10:54:00;9.40;;;6.40;;
1224;SDS011;602;48.000;7.840;2024-03-08T10:56:30;10.67;;;7.47;;
1224;SDS011;602;48.000;7.840;2024-03-08T10:58:57;8.93;;;5.80;;
1224;SDS011;602;48.000;7.840;2024-03-08T11:01:24;6.87;;;5.10;;
1224;SDS011;602;48.000;7.840;2024-03-08T11:03:51;9.63;;;6.87;;
1224;SDS011;602;48.000;7.840;2024-03-08T11:06:22;9.17;;;5.30;;
1224;SDS011;602;48.000;7.840;2024-03-08T11:08:55;7.47;;;6.00;;
1224;SDS011;602;48.000;7.840;2024-03-08T11:11:24;11.10;;;7.23;;
1224;SDS011;602;48.000;7.840;2024-03-08T11:13:56;11.93;;;6.63;;
1224;SDS011;602;48.000;7.840;2024-03-08T11:16:36;6.23;;;5.27;;
1224;SDS011;602;48.000;7.840;2024-03-08T11:19:06;7.37;;;5.07;;
1224;SDS011;602;48.000;7.840;2024-03-08T11:21:50;10.87;;;6.20;;
1224;SDS011;602;48.000;7.840;2024-03-08T11:24:23;8.97;;;5.87;;
1224;SDS011;602;48.000;7.840;2024-03-08T11:26:54;9.90;;;6.20;;
1224;SDS011;602;48.000;7.840;2024-03-08T11:29:35;11.07;;;7.10;;
1224;SDS011;602;48.000;7.840;2024-03-08T11:32:05;7.50;;;5.90;;
1224;SDS011;602;48.000;7.840;2024-03-08T11:34:36;9.10;;;6.30;;
1224;SDS011;602;48.000;7.840;2024-03-08T11:37:03;9.40;;;6.40;;
1224;SDS011;602;48.000;7.840;2024-03-08T11:39:34;8.53;;;5.73;;
1224;SDS011;602;48.000;7.840;2024-03-08T11:42:03;8.77;;;6.10;;
1224;SDS011;602;48.000;7.840;2024-03-08T11:44:30;8.33;;;6.47;;
1224;SDS011;602;48.000;7.840;2024-03-08T11:46:59;7.90;;;6.03;;
1224;SDS011;602;48.000;7.840;2024-03-08T11:49:26;10.00;;;6.70;;
1224;SDS011;602;48.000;7.840;2024-03-08T11:51:53;8.60;;;6.90;;
1224;SDS011;602;48.000;7.840;2024-03-08T11:54:21;8.70;;;6.27;;
1224;SDS011;602;48.000;7.840;2024-03-08T11:56:51;12.37;;;7.80;;
1224;SDS011;602;48.000;7.840;2024-03-08T11:59:20;10.70;;;7.07;;
1224;SDS011;602;48.000;7.840;2024-03-08T12:01:59;8.67;;;6.93;;
1224;SDS011;602;48.000;7.840;2024-03-08T12:04:27;10.37;;;6.97;;
1224;SDS011;602;48.000;7.840;2024-03-08T12:06:54;7.73;;;5.67;;
1224;SDS011;602;48.000;7.840;2024-03-08T12:09:21;8.37;;;7.00;;
1224;SDS011;602;48.000;7.840;2024-03-08T12:11:48;7.53;;;5.30;;
1224;SDS011;602;48.000;7.840;2024-03-08T12:14:16;9.53;;;6.40;;
1224;SDS011;602;48.000;7.840;2024-03-08T12:16:43;6.87;;;5.50;;
1224;SDS011;602;48.000;7.840;2024-03-08T12:19:12;7.37;;;5.83;;
1224;SDS011;602;48.000;7.840;2024-03-08T12:21:38;11.47;;;7.70;;
1224;SDS011;602;48.000;7.840;2024-03-08T12:24:13;13.33;;;7.13;;
1224;SDS011;602;48.000;7.840;2024-03-08T12:26:44;11.20;;;7.40;;
1224;SDS011;602;48.000;7.840;2024-03-08T12:29:20;7.97;;;6.97;;
1224;SDS011;602;48.000;7.840;2024-03-08T12:31:50;11.33;;;7.50;;
1224;SDS011;602;48.000;7.840;2024-03-08T12:34:19;14.60;;;7.57;;
1224;SDS011;602;48.000;7.840;2024-03-08T12:36:46;8.00;;;6.70;;
1224;SDS011;602;48.000;7.840;2024-03-08T12:39:18;11.60;;;7.30;;
1224;SDS011;602;48.000;7.840;2024-03-08T12:41:51;8.57;;;6.63;;
1224;SDS011;602;48.000;7.840;2024-03-08T12:44:18;10.40;;;7.20;;
1224;SDS011;602;48.000;7.840;2024-03-08T12:46:46;14.67;;;9.40;;
1224;SDS011;602;48.000;7.840;2024-03-08T12:49:14;8.57;;;7.67;;
1224;SDS011;602;48.000;7.840;2024-03-08T12:51:44;10.50;;;7.80;;
1224;SDS011;602;48.000;7.840;2024-03-08T12:54:11;10.60;;;7.00;;
1224;SDS011;602;48.000;7.840;2024-03-08T12:56:38;13.27;;;8.60;;
1224;SDS011;602;48.000;7.840;2024-03-08T12:59:05;11.50;;;7.80;;
1224;SDS011;602;48.000;7.840;2024-03-08T13:01:33;11.50;;;8.20;;
1224;SDS011;602;48.000;7.840;2024-03-08T13:04:02;13.17;;;8.50;;
1224;SDS011;602;48.000;7.840;2024-03-08T13:06:31;9.67;;;7.30;;
1224;SDS011;602;48.000;7.840;2024-03-08T13:09:00;10.03;;;7.63;;
1224;SDS011;602;48.000;7.840;2024-03-08T13:11:30;13.10;;;9.30;;
1224;SDS011;602;48.000;7.840;2024-03-08T13:14:01;11.03;;;7.70;;
1224;SDS011;602;48.000;7.840;2024-03-08T13:16:30;12.00;;;8.63;;
1224;SDS011;602;48.000;7.840;2024-03-08T13:18:57;10.40;;;7.10;;
1224;SDS011;602;48.000;7.840;2024-03-08T13:21:24;9.60;;;7.70;;
1224;SDS011;602;48.000;7.840;2024-03-08T13:23:51;12.90;;;7.70;;
1224;SDS011;602;48.000;7.840;2024-03-08T13:26:20;9.73;;;7.50;;
1224;SDS011;602;48.000;7.840;2024-03-08T13:28:47;11.40;;;9.07;;
1224;SDS011;602;48.000;7.840;2024-03-08T13:31:18;12.03;;;8.67;;
1224;SDS011;602;48.000;7.840;2024-03-08T13:33:44;9.00;;;7.20;;
1224;SDS011;602;48.000;7.840;2024-03-08T13:36:12;10.00;;;8.00;;
1224;SDS011;602;48.000;7.840;2024-03-08T13:38:41;9.50;;;7.17;;
1224;SDS011;602;48.000;7.840;2024-03-08T13:41:09;11.70;;;7.50;;
1224;SDS011;602;48.000;7.840;2024-03-08T13:43:40;12.10;;;7.43;;
1224;SDS011;602;48.000;7.840;2024-03-08T13:46:07;9.40;;;6.87;;
1224;SDS011;602;48.000;7.840;2024-03-08T13:48:36;8.70;;;6.77;;
1224;SDS011;602;48.000;7.840;2024-03-08T13:51:03;11.90;;;7.60;;
1224;SDS011;602;48.000;7.840;2024-03-08T13:53:31;10.40;;;7.07;;
1224;SDS011;602;48.000;7.840;2024-03-08T13:55:59;11.97;;;6.90;;
1224;SDS011;602;48.000;7.840;2024-03-08T13:58:27;9.97;;;7.07;;
1224;SDS011;602;48.000;7.840;2024-03-08T14:00:55;9.27;;;7.37;;
1224;SDS011;602;48.000;7.840;2024-03-08T14:03:22;10.60;;;7.40;;
1224;SDS011;602;48.000;7.840;2024-03-08T14:05:50;10.23;;;7.10;;
1224;SDS011;602;48.000;7.840;2024-03-08T14:08:17;11.03;;;7.20;;
1224;SDS011;602;48.000;7.840;2024-03-08T14:10:44;13.40;;;8.30;;
1224;SDS011;602;48.000;7.840;2024-03-08T14:13:12;13.33;;;8.17;;
1224;SDS011;602;48.000;7.840;2024-03-08T14:15:41;10.60;;;6.90;;
1224;SDS011;602;48.000;7.840;2024-03-08T14:18:11;10.53;;;6.33;;
1224;SDS011;602;48.000;7.840;2024-03-08T14:20:39;10.53;;;6.67;;
1224;SDS011;602;48.000;7.840;2024-03-08T14:23:07;8.70;;;7.00;;
1224;SDS011;602;48.000;7.840;2024-03-08T14:25:34;9.90;;;6.90;;
1224;SDS011;602;48.000;7.840;2024-03-08T14:28:01;12.90;;;8.07;;
1224;SDS011;602;48.000;7.840;2024-03-08T14:30:31;8.10;;;6.90;;
1224;SDS011;602;48.000;7.840;2024-03-08T14:32:59;10.30;;;7.30;;
1224;SDS011;602;48.000;7.840;2024-03-08T14:35:28;11.27;;;8.03;;
1224;SDS011;602;48.000;7.840;2024-03-08T14:37:55;9.70;;;7.83;;
1224;SDS011;602;48.000;7.840;2024-03-08T14:40:23;11.30;;;7.73;;
1224;SDS011;602;48.000;7.840;2024-03-08T14:42:51;8.93;;;7.00;;
1224;SDS011;602;48.000;7.840;2024-03-08T14:45:18;10.33;;;7.13;;
1224;SDS011;602;48.000;7.840;2024-03-08T14:47:45;12.07;;;8.63;;
1224;SDS011;602;48.000;7.840;2024-03-08T14:50:14;11.10;;;7.80;;
1224;SDS011;602;48.000;7.840;2024-03-08T14:52:43;11.00;;;7.90;;
1224;SDS011;602;48.000;7.840;2024-03-08T14:55:11;10.07;;;6.90;;
1224;SDS011;602;48.000;7.840;2024-03-08T14:57:39;9.87;;;6.67;;
1224;SDS011;602;48.000;7.840;2024-03-08T15:00:07;11.63;;;8.03;;
1224;SDS011;602;48.000;7.840;2024-03-08T15:02:41;9.97;;;6.57;;
1224;SDS011;602;48.000;7.840;2024-03-08T15:05:08;9.27;;;6.40;;
1224;SDS011;602;48.000;7.840;2024-03-08T15:07:36;10.93;;;7.07;;
1224;SDS011;602;48.000;7.840;2024-03-08T15:10:06;11.13;;;7.60;;
1224;SDS011;602;48.000;7.840;2024-03-08T15:12:36;12.40;;;7.83;;
1224;SDS011;602;48.000;7.840;2024-03-08T15:15:05;10.97;;;7.77;;
1224;SDS011;602;48.000;7.840;2024-03-08T15:17:35;14.13;;;7.83;;
1224;SDS011;602;48.000;7.840;2024-03-08T15:20:05;11.17;;;7.47;;
1224;SDS011;602;48.000;7.840;2024-03-08T15:22:40;11.37;;;7.83;;
1224;SDS011;602;48.000;7.840;2024-03-08T15:25:09;11.87;;;7.63;;
1224;SDS011;602;48.000;7.840;2024-03-08T15:27:45;11.40;;;7.40;;
1224;SDS011;602;48.000;7.840;2024-03-08T15:30:13;9.93;;;6.60;;